createdAt,value
2024-05-09T00:00:40.586Z,1.80
2024-05-09T00:03:12.409Z,1.60
2024-05-09T00:05:44.422Z,2.10
2024-05-09T00:08:15.219Z,2.30
2024-05-09T00:10:45.577Z,1.70
2024-05-09T00:13:15.708Z,2.00
2024-05-09T00:15:45.770Z,1.70
2024-05-09T00:18:16.151Z,1.80
2024-05-09T00:20:46.487Z,1.60
2024-05-09T00:23:16.716Z,1.80
2024-05-09T00:25:47.080Z,1.50
2024-05-09T00:28:17.341Z,1.80
2024-05-09T00:30:47.397Z,1.30
2024-05-09T00:33:17.716Z,2.10
2024-05-09T00:35:48.097Z,1.90
2024-05-09T00:38:18.217Z,1.90
2024-05-09T00:40:48.516Z,1.70
2024-05-09T00:43:18.638Z,1.70
2024-05-09T00:45:49.445Z,2.20
2024-05-09T00:48:21.538Z,2.30
2024-05-09T00:50:53.867Z,2.50
2024-05-09T00:53:25.054Z,2.20
2024-05-09T00:55:57.647Z,1.80
2024-05-09T00:58:30.372Z,2.20
2024-05-09T01:01:02.366Z,2.20
2024-05-09T01:03:32.770Z,2.30
2024-05-09T01:06:03.214Z,2.40
2024-05-09T01:08:33.524Z,2.10
2024-05-09T01:11:03.843Z,2.00
2024-05-09T01:13:34.275Z,2.40
2024-05-09T01:16:05.707Z,2.10
2024-05-09T01:18:35.844Z,2.20
2024-05-09T01:21:09.145Z,2.10
2024-05-09T01:23:39.376Z,2.70
2024-05-09T01:26:09.674Z,2.00
2024-05-09T01:28:39.777Z,2.50
2024-05-09T01:31:15.528Z,2.30
2024-05-09T01:33:45.835Z,1.80
2024-05-09T01:36:16.202Z,2.20
2024-05-09T01:38:46.280Z,2.10
2024-05-09T01:41:16.486Z,1.90
2024-05-09T01:43:46.624Z,2.20
2024-05-09T01:46:18.926Z,2.20
2024-05-09T01:48:49.134Z,1.80
2024-05-09T01:51:19.520Z,2.40
2024-05-09T01:53:50.539Z,2.00
2024-05-09T01:56:20.656Z,1.90
2024-05-09T01:58:50.913Z,2.10
2024-05-09T02:01:21.063Z,2.30
2024-05-09T02:03:51.537Z,2.40
2024-05-09T02:06:21.618Z,1.70
2024-05-09T02:08:51.654Z,1.70
2024-05-09T02:11:21.986Z,2.10
2024-05-09T02:13:52.181Z,2.10
2024-05-09T02:16:22.294Z,1.90
2024-05-09T02:18:52.576Z,2.40
2024-05-09T02:21:22.724Z,1.90
2024-05-09T02:23:52.786Z,2.30
2024-05-09T02:26:22.907Z,2.10
2024-05-09T02:28:52.935Z,2.30
2024-05-09T02:31:23.066Z,1.90
2024-05-09T02:33:53.964Z,2.10
2024-05-09T02:36:24.161Z,2.00
2024-05-09T02:38:54.205Z,1.90
2024-05-09T02:41:24.314Z,2.20
2024-05-09T02:43:54.464Z,2.00
2024-05-09T02:46:24.543Z,2.50
2024-05-09T02:48:54.770Z,2.00
2024-05-09T02:51:24.969Z,2.30
2024-05-09T02:53:55.161Z,1.80
2024-05-09T02:56:25.590Z,1.90
2024-05-09T02:58:56.725Z,2.40
2024-05-09T03:01:27.053Z,2.30
2024-05-09T03:03:57.306Z,2.50
2024-05-09T03:06:27.532Z,1.90
2024-05-09T03:08:57.569Z,2.00
2024-05-09T03:11:28.188Z,2.20
2024-05-09T03:13:58.492Z,2.00
2024-05-09T03:16:28.758Z,2.10
2024-05-09T03:18:58.869Z,2.70
2024-05-09T03:21:29.040Z,1.90
2024-05-09T03:23:59.181Z,1.90
2024-05-09T03:26:29.305Z,2.90
2024-05-09T03:28:59.491Z,2.60
2024-05-09T03:31:29.621Z,1.80
2024-05-09T03:33:59.807Z,2.00
2024-05-09T03:36:29.975Z,2.10
2024-05-09T03:38:59.956Z,2.10
2024-05-09T03:41:31.473Z,2.80
2024-05-09T03:44:01.731Z,3.00
2024-05-09T03:46:31.893Z,2.20
2024-05-09T03:49:02.215Z,2.00
2024-05-09T03:51:32.510Z,1.80
2024-05-09T03:54:02.664Z,1.90
2024-05-09T03:56:32.833Z,2.50
2024-05-09T03:59:02.961Z,2.60
2024-05-09T04:01:33.233Z,2.10
2024-05-09T04:04:03.321Z,2.20
2024-05-09T04:06:33.502Z,2.60
2024-05-09T04:09:04.799Z,2.30
2024-05-09T04:11:35.537Z,2.20
2024-05-09T04:14:05.613Z,2.90
2024-05-09T04:16:35.741Z,2.70
2024-05-09T04:19:06.653Z,2.40
2024-05-09T04:21:36.841Z,2.50
2024-05-09T04:24:07.642Z,2.40
2024-05-09T04:26:37.717Z,2.10
2024-05-09T04:29:07.791Z,2.30
2024-05-09T04:31:39.217Z,2.70
2024-05-09T04:34:09.511Z,2.70
2024-05-09T04:36:43.180Z,2.40
2024-05-09T04:39:14.494Z,2.50
2024-05-09T04:41:44.508Z,2.90
2024-05-09T04:44:14.575Z,3.40
2024-05-09T04:46:45.000Z,2.80
2024-05-09T04:49:15.530Z,3.00
2024-05-09T04:51:45.703Z,3.10
2024-05-09T04:54:26.192Z,3.10
2024-05-09T04:57:04.110Z,3.70
2024-05-09T04:59:34.243Z,3.70
2024-05-09T05:02:04.656Z,3.30
2024-05-09T05:04:34.891Z,3.50
2024-05-09T05:07:05.450Z,3.10
2024-05-09T05:09:35.505Z,3.30
2024-05-09T05:12:26.429Z,3.20
2024-05-09T05:14:56.612Z,3.00
2024-05-09T05:17:26.797Z,2.80
2024-05-09T05:19:57.752Z,3.40
2024-05-09T05:22:27.843Z,3.00
2024-05-09T05:24:58.087Z,3.10
2024-05-09T05:27:28.124Z,2.80
2024-05-09T05:29:58.132Z,2.80
2024-05-09T05:32:28.452Z,2.40
2024-05-09T05:34:58.862Z,3.00
2024-05-09T05:37:28.899Z,3.10
2024-05-09T05:39:58.931Z,2.80
2024-05-09T05:42:29.236Z,2.90
2024-05-09T05:44:59.327Z,3.00
2024-05-09T05:47:29.474Z,3.00
2024-05-09T05:50:00.476Z,3.10
2024-05-09T05:52:30.608Z,3.20
2024-05-09T05:55:00.723Z,2.70
2024-05-09T05:57:30.884Z,3.00
2024-05-09T06:00:00.879Z,2.80
2024-05-09T06:02:31.025Z,3.30
2024-05-09T06:05:01.306Z,3.10
2024-05-09T06:07:31.502Z,3.20
2024-05-09T06:10:01.651Z,3.10
2024-05-09T06:12:31.670Z,3.10
2024-05-09T06:15:01.873Z,3.10
2024-05-09T06:17:32.042Z,3.50
2024-05-09T06:20:02.361Z,2.90
2024-05-09T06:22:32.522Z,3.80
2024-05-09T06:25:02.613Z,3.40
2024-05-09T06:27:32.706Z,3.00
2024-05-09T06:30:02.986Z,3.70
2024-05-09T06:32:33.927Z,3.70
2024-05-09T06:35:04.487Z,2.80
2024-05-09T06:37:34.609Z,3.10
2024-05-09T06:40:07.304Z,3.50
2024-05-09T06:42:37.717Z,3.10
2024-05-09T06:45:10.043Z,3.30
2024-05-09T06:47:40.476Z,3.60
2024-05-09T06:50:19.698Z,3.30
2024-05-09T06:52:54.190Z,3.90
2024-05-09T06:55:24.423Z,3.60
2024-05-09T06:57:54.554Z,3.80
2024-05-09T07:00:30.910Z,3.20
2024-05-09T07:03:11.625Z,3.40
2024-05-09T07:05:43.194Z,3.40
2024-05-09T07:08:14.110Z,3.70
2024-05-09T07:10:44.477Z,3.40
2024-05-09T07:13:15.762Z,4.50
2024-05-09T07:15:46.218Z,2.80
2024-05-09T07:18:18.589Z,2.80
2024-05-09T07:20:50.558Z,5.30
2024-05-09T07:23:21.221Z,3.30
2024-05-09T07:25:51.452Z,2.80
2024-05-09T07:28:22.502Z,3.10
2024-05-09T07:30:52.519Z,3.50
2024-05-09T07:33:24.443Z,3.20
2024-05-09T07:35:54.938Z,5.80
2024-05-09T07:38:25.051Z,5.90
2024-05-09T07:40:55.154Z,3.50
2024-05-09T07:43:26.845Z,3.80
2024-05-09T07:45:59.699Z,3.90
2024-05-09T07:53:52.376Z,3.70
2024-05-09T07:56:26.099Z,3.20
2024-05-09T07:58:56.633Z,3.00
2024-05-09T08:01:27.331Z,2.80
2024-05-09T08:03:57.822Z,2.90
2024-05-09T08:06:28.532Z,3.10
2024-05-09T08:09:02.640Z,3.10
2024-05-09T08:11:34.934Z,2.70
2024-05-09T08:14:05.018Z,2.50
2024-05-09T08:16:35.083Z,2.30
2024-05-09T08:19:05.288Z,2.20
2024-05-09T08:21:35.350Z,2.40
2024-05-09T08:24:06.014Z,2.50
2024-05-09T08:26:36.083Z,2.70
2024-05-09T08:29:06.173Z,2.40
2024-05-09T08:31:40.139Z,2.00
2024-05-09T08:34:10.928Z,2.70
2024-05-09T08:36:42.168Z,2.00
2024-05-09T08:39:12.341Z,2.60
2024-05-09T08:41:49.478Z,2.70
2024-05-09T08:44:21.510Z,2.40
2024-05-09T08:46:52.931Z,2.50
2024-05-09T08:49:25.490Z,2.70
2024-05-09T08:51:55.656Z,2.80
2024-05-09T08:54:25.781Z,2.80
2024-05-09T08:56:57.009Z,1.90
2024-05-09T08:59:35.711Z,1.70
2024-05-09T09:02:07.097Z,2.30
2024-05-09T09:04:41.299Z,1.70
2024-05-09T09:07:11.966Z,1.70
2024-05-09T09:09:45.531Z,1.60
2024-05-09T09:12:15.643Z,1.80
2024-05-09T09:14:45.746Z,1.70
2024-05-09T09:17:17.033Z,1.70
2024-05-09T09:19:47.155Z,1.70
2024-05-09T09:22:19.475Z,1.80
2024-05-09T09:24:49.767Z,1.70
2024-05-09T09:27:19.945Z,1.90
2024-05-09T09:29:50.466Z,1.60
2024-05-09T09:32:20.539Z,1.50
2024-05-09T09:34:51.148Z,2.00
2024-05-09T09:37:24.116Z,2.00
2024-05-09T09:39:54.999Z,1.70
2024-05-09T09:42:29.790Z,1.50
2024-05-09T09:45:05.007Z,1.80
2024-05-09T09:47:39.659Z,1.70
2024-05-09T09:50:16.792Z,1.60
2024-05-09T09:52:51.201Z,1.90
2024-05-09T09:55:22.770Z,1.90
2024-05-09T09:57:56.606Z,2.10
2024-05-09T10:00:33.077Z,1.70
2024-05-09T10:03:04.575Z,2.10
2024-05-09T10:05:35.827Z,1.80
2024-05-09T10:08:09.142Z,1.50
2024-05-09T10:10:39.627Z,2.20
2024-05-09T10:13:10.312Z,1.40
2024-05-09T10:15:47.593Z,1.70
2024-05-09T10:18:22.535Z,1.70
2024-05-09T10:20:54.279Z,1.70
2024-05-09T10:23:28.470Z,2.20
2024-05-09T10:26:00.033Z,1.90
2024-05-09T10:28:30.815Z,1.80
2024-05-09T10:31:09.267Z,2.10
2024-05-09T10:33:48.963Z,2.30
2024-05-09T10:36:23.331Z,1.80
2024-05-09T10:38:54.649Z,1.90
2024-05-09T10:41:25.423Z,2.00
2024-05-09T10:43:55.538Z,1.60
2024-05-09T10:46:26.536Z,2.10
2024-05-09T10:49:00.971Z,1.70
2024-05-09T10:51:37.592Z,2.10
2024-05-09T10:54:07.894Z,1.90
2024-05-09T10:56:37.918Z,1.60
2024-05-09T10:59:08.217Z,1.80
2024-05-09T11:01:38.967Z,2.10
2024-05-09T11:04:10.324Z,1.50
2024-05-09T11:06:41.086Z,1.70
2024-05-09T11:09:11.701Z,2.00
2024-05-09T11:11:42.019Z,1.90
2024-05-09T11:14:17.020Z,1.30
2024-05-09T11:16:47.039Z,2.40
2024-05-09T11:19:19.569Z,2.10
2024-05-09T11:21:54.024Z,1.60
2024-05-09T11:24:24.659Z,1.70
2024-05-09T11:26:54.779Z,2.10
2024-05-09T11:29:36.723Z,1.70
2024-05-09T11:32:08.916Z,2.20
2024-05-09T11:34:41.681Z,1.80
2024-05-09T11:37:12.992Z,2.10
2024-05-09T11:39:43.230Z,1.60
2024-05-09T11:42:14.215Z,2.10
2024-05-09T11:44:44.354Z,2.20
2024-05-09T11:47:14.518Z,1.30
2024-05-09T11:49:45.698Z,2.30
2024-05-09T11:52:15.996Z,2.00
2024-05-09T11:54:46.257Z,1.80
2024-05-09T11:57:16.555Z,1.70
2024-05-09T11:59:46.701Z,1.80
2024-05-09T12:02:17.037Z,2.10
2024-05-09T12:04:48.555Z,2.50
2024-05-09T12:07:19.614Z,2.00
2024-05-09T12:09:50.098Z,1.70
2024-05-09T12:12:20.320Z,1.70
2024-05-09T12:14:50.399Z,2.10
2024-05-09T12:17:20.532Z,2.60
2024-05-09T12:19:52.538Z,1.60
2024-05-09T12:22:22.614Z,1.30
2024-05-09T12:24:52.777Z,2.20
2024-05-09T12:27:24.490Z,1.80
2024-05-09T12:29:54.852Z,2.20
2024-05-09T12:32:25.104Z,1.50
2024-05-09T12:34:55.360Z,1.90
2024-05-09T12:37:25.679Z,2.00
2024-05-09T12:39:55.892Z,1.60
2024-05-09T12:42:28.609Z,1.70
2024-05-09T12:44:59.769Z,1.70
2024-05-09T12:47:29.998Z,1.50
2024-05-09T12:50:01.407Z,1.70
2024-05-09T12:52:31.463Z,1.80
2024-05-09T12:55:01.582Z,1.70
2024-05-09T12:57:31.754Z,1.80
2024-05-09T13:00:02.933Z,1.80
2024-05-09T13:02:33.309Z,1.80
2024-05-09T13:05:03.925Z,1.40
2024-05-09T13:07:34.159Z,2.20
2024-05-09T13:10:05.666Z,2.20
2024-05-09T13:12:37.156Z,1.80
2024-05-09T13:15:08.564Z,1.50
2024-05-09T13:17:38.723Z,1.60
2024-05-09T13:20:18.689Z,2.10
2024-05-09T13:22:55.806Z,1.90
2024-05-09T13:25:25.967Z,1.70
2024-05-09T13:27:56.720Z,1.50
2024-05-09T13:30:35.520Z,1.60
2024-05-09T13:33:11.988Z,2.20
2024-05-09T13:35:49.477Z,1.40
2024-05-09T13:38:24.430Z,1.60
2024-05-09T13:40:54.559Z,1.90
2024-05-09T13:43:25.231Z,1.70
2024-05-09T13:45:57.171Z,2.00
2024-05-09T13:48:27.793Z,1.60
2024-05-09T13:50:59.101Z,1.80
2024-05-09T13:53:29.157Z,1.70
2024-05-09T13:55:59.277Z,1.70
2024-05-09T13:58:29.387Z,1.30
2024-05-09T14:00:59.789Z,1.80
2024-05-09T14:03:30.705Z,1.70
2024-05-09T14:06:02.097Z,1.70
2024-05-09T14:08:32.647Z,2.80
2024-05-09T14:11:03.053Z,2.00
2024-05-09T14:13:33.312Z,1.60
2024-05-09T14:16:03.693Z,1.80
2024-05-09T14:18:34.035Z,1.80
2024-05-09T14:21:04.511Z,2.30
2024-05-09T14:23:34.564Z,1.90
2024-05-09T14:26:04.802Z,1.30
2024-05-09T14:28:34.932Z,2.10
2024-05-09T14:31:05.531Z,2.10
2024-05-09T14:33:35.841Z,1.90
2024-05-09T14:36:07.042Z,2.30
2024-05-09T14:38:37.166Z,1.90
2024-05-09T14:41:09.163Z,1.70
2024-05-09T14:43:39.214Z,1.80
2024-05-09T14:46:09.993Z,2.60
2024-05-09T14:48:40.751Z,2.20
2024-05-09T14:51:10.915Z,1.80
2024-05-09T14:53:40.935Z,2.10
2024-05-09T14:56:11.492Z,1.70
2024-05-09T14:58:41.863Z,2.00
2024-05-09T15:01:12.137Z,4.10
2024-05-09T15:03:42.554Z,1.90
2024-05-09T15:06:13.052Z,1.80
2024-05-09T15:08:43.293Z,2.50
2024-05-09T15:11:13.456Z,1.50
2024-05-09T15:13:43.579Z,2.00
2024-05-09T15:16:13.744Z,1.90
2024-05-09T15:18:44.698Z,1.90
2024-05-09T15:21:15.529Z,1.60
2024-05-09T15:23:45.671Z,1.50
2024-05-09T15:26:16.581Z,1.50
2024-05-09T15:28:46.974Z,1.50
2024-05-09T15:31:17.099Z,1.30
2024-05-09T15:33:47.451Z,1.40
2024-05-09T15:36:18.099Z,1.80
2024-05-09T15:38:48.518Z,1.90
2024-05-09T15:41:18.642Z,1.70
2024-05-09T15:43:48.810Z,1.90
2024-05-09T15:46:19.026Z,1.30
2024-05-09T15:48:49.354Z,1.80
2024-05-09T15:51:19.532Z,2.10
2024-05-09T15:53:49.692Z,1.80
2024-05-09T15:56:20.058Z,1.90
2024-05-09T15:58:50.178Z,2.70
2024-05-09T16:01:20.410Z,2.00
2024-05-09T16:03:51.289Z,1.90
2024-05-09T16:06:21.519Z,2.70
2024-05-09T16:08:51.626Z,1.90
2024-05-09T16:11:21.712Z,1.80
2024-05-09T16:13:51.832Z,2.30
2024-05-09T16:16:21.935Z,1.70
2024-05-09T16:18:52.356Z,2.00
2024-05-09T16:21:22.644Z,1.70
2024-05-09T16:23:52.873Z,1.90
2024-05-09T16:26:23.019Z,1.70
2024-05-09T16:28:53.066Z,1.50
2024-05-09T16:31:23.424Z,1.40
2024-05-09T16:33:54.031Z,1.70
2024-05-09T16:36:24.507Z,1.60
2024-05-09T16:38:54.605Z,1.60
2024-05-09T16:41:24.870Z,1.70
2024-05-09T16:43:54.926Z,1.60
2024-05-09T16:46:25.259Z,2.10
2024-05-09T16:48:55.767Z,2.70
2024-05-09T16:51:26.263Z,2.00
2024-05-09T16:53:56.351Z,1.90
2024-05-09T16:56:26.643Z,1.60
2024-05-09T16:58:57.268Z,2.00
2024-05-09T17:01:27.356Z,1.80
2024-05-09T17:03:57.768Z,2.90
2024-05-09T17:06:28.156Z,2.20
2024-05-09T17:09:05.292Z,2.10
2024-05-09T17:11:38.844Z,2.70
2024-05-09T17:14:09.357Z,3.00
2024-05-09T17:16:39.809Z,3.70
2024-05-09T17:19:09.983Z,2.60
2024-05-09T17:21:40.143Z,3.10
2024-05-09T17:24:10.348Z,2.30
2024-05-09T17:26:40.409Z,3.40
2024-05-09T17:29:12.478Z,1.80
2024-05-09T17:31:42.853Z,1.90
2024-05-09T17:34:13.345Z,1.80
2024-05-09T17:36:43.825Z,2.00
2024-05-09T17:39:14.274Z,1.80
2024-05-09T17:41:45.290Z,1.80
2024-05-09T17:44:15.296Z,3.00
2024-05-09T17:46:45.595Z,2.30
2024-05-09T17:49:15.808Z,2.90
2024-05-09T17:51:53.876Z,3.10
2024-05-09T17:54:23.936Z,3.10
2024-05-09T17:56:54.005Z,3.50
2024-05-09T17:59:24.134Z,3.30
2024-05-09T18:01:54.515Z,3.60
2024-05-09T18:04:25.212Z,3.10
2024-05-09T18:06:55.366Z,3.10
2024-05-09T18:09:25.482Z,14.40
2024-05-09T18:11:55.587Z,7.10
2024-05-09T18:14:25.753Z,5.50
2024-05-09T18:16:55.973Z,4.60
2024-05-09T18:19:26.239Z,3.80
2024-05-09T18:21:56.888Z,3.00
2024-05-09T18:24:27.239Z,3.20
2024-05-09T18:26:57.413Z,3.00
2024-05-09T18:29:27.529Z,3.00
2024-05-09T18:31:57.628Z,2.50
2024-05-09T18:34:27.978Z,3.10
2024-05-09T18:36:59.240Z,2.30
2024-05-09T18:39:30.367Z,2.90
2024-05-09T18:42:01.728Z,3.00
2024-05-09T18:44:32.620Z,2.50
2024-05-09T18:47:03.944Z,2.50
2024-05-09T18:49:34.159Z,3.00
2024-05-09T18:52:04.774Z,3.00
2024-05-09T18:54:34.985Z,3.30
2024-05-09T18:57:05.324Z,3.70
2024-05-09T18:59:35.378Z,3.50
2024-05-09T19:02:06.510Z,3.00
2024-05-09T19:04:36.953Z,3.30
2024-05-09T19:07:07.442Z,3.50
2024-05-09T19:09:37.607Z,3.60
2024-05-09T19:12:09.306Z,3.70
2024-05-09T19:14:39.396Z,3.50
2024-05-09T19:17:09.840Z,3.40
2024-05-09T19:19:39.888Z,3.10
2024-05-09T19:22:10.321Z,2.80
2024-05-09T19:24:40.414Z,2.70
2024-05-09T19:27:10.624Z,3.00
2024-05-09T19:29:40.724Z,3.20
2024-05-09T19:32:10.798Z,3.70
2024-05-09T19:34:40.848Z,3.50
2024-05-09T19:37:10.989Z,3.70
2024-05-09T19:39:41.209Z,3.60
2024-05-09T19:42:11.305Z,3.40
2024-05-09T19:44:41.353Z,4.20
2024-05-09T19:47:12.592Z,4.50
2024-05-09T19:49:42.666Z,5.10
2024-05-09T19:52:12.774Z,5.00
2024-05-09T19:54:44.548Z,5.80
2024-05-09T19:57:14.704Z,5.30
2024-05-09T19:59:45.184Z,5.50
2024-05-09T20:02:17.366Z,5.50
2024-05-09T20:04:48.991Z,5.00
2024-05-09T20:07:19.283Z,5.90
2024-05-09T20:09:49.382Z,4.70
2024-05-09T20:12:19.426Z,4.50
2024-05-09T20:14:49.454Z,5.00
2024-05-09T20:17:19.578Z,4.70
2024-05-09T20:19:49.838Z,4.80
2024-05-09T20:22:20.013Z,3.70
2024-05-09T20:24:50.198Z,4.60
2024-05-09T20:27:20.439Z,4.70
2024-05-09T20:29:50.634Z,4.80
2024-05-09T20:32:20.939Z,5.70
2024-05-09T20:34:51.924Z,5.20
2024-05-09T20:37:22.985Z,5.10
2024-05-09T20:39:53.298Z,4.60
2024-05-09T20:42:23.675Z,4.40
2024-05-09T20:44:53.659Z,4.80
2024-05-09T20:47:23.769Z,5.90
2024-05-09T20:49:53.859Z,4.80
2024-05-09T20:52:24.051Z,4.60
2024-05-09T20:54:54.205Z,4.90
2024-05-09T20:57:24.268Z,4.20
2024-05-09T20:59:54.366Z,5.40
2024-05-09T21:02:24.575Z,5.10
2024-05-09T21:04:54.846Z,4.00
2024-05-09T21:07:25.026Z,5.20
2024-05-09T21:09:55.245Z,4.20
2024-05-09T21:12:25.387Z,4.20
2024-05-09T21:14:55.357Z,6.50
2024-05-09T21:17:25.477Z,5.80
2024-05-09T21:19:55.856Z,5.10
2024-05-09T21:22:25.997Z,7.00
2024-05-09T21:24:56.047Z,5.00
2024-05-09T21:27:26.186Z,5.20
2024-05-09T21:29:56.153Z,5.10
2024-05-09T21:32:26.349Z,5.40
2024-05-09T21:34:56.456Z,5.90
2024-05-09T21:37:26.656Z,5.30
2024-05-09T21:39:56.682Z,5.70
2024-05-09T21:42:27.008Z,4.80
2024-05-09T21:44:57.014Z,4.90
2024-05-09T21:47:27.193Z,5.30
2024-05-09T21:49:57.431Z,5.30
2024-05-09T21:52:27.602Z,5.10
2024-05-09T21:54:57.606Z,4.70
2024-05-09T21:57:27.698Z,4.70
2024-05-09T21:59:57.723Z,4.90
2024-05-09T22:02:27.892Z,5.20
2024-05-09T22:04:58.167Z,6.70
2024-05-09T22:07:28.251Z,6.50
2024-05-09T22:09:58.408Z,6.60
2024-05-09T22:12:28.574Z,6.60
2024-05-09T22:14:58.749Z,6.00
2024-05-09T22:17:28.970Z,6.10
2024-05-09T22:19:59.721Z,6.10
2024-05-09T22:22:29.894Z,6.30
2024-05-09T22:24:59.993Z,6.10
2024-05-09T22:27:30.245Z,6.00
2024-05-09T22:30:00.439Z,5.20
2024-05-09T22:32:30.907Z,6.00
2024-05-09T22:35:01.152Z,5.70
2024-05-09T22:37:31.286Z,5.90
2024-05-09T22:40:03.264Z,5.90
2024-05-09T22:42:34.970Z,5.90
2024-05-09T22:45:06.022Z,5.80
2024-05-09T22:47:36.151Z,5.40
2024-05-09T22:50:12.867Z,5.30
2024-05-09T22:52:46.282Z,6.00
2024-05-09T22:55:16.879Z,5.10
2024-05-09T22:57:47.315Z,5.30
2024-05-09T23:00:21.792Z,5.90
2024-05-09T23:02:56.511Z,5.30
2024-05-09T23:05:27.115Z,5.60
2024-05-09T23:07:57.732Z,6.00
2024-05-09T23:10:35.182Z,5.70
2024-05-09T23:13:08.578Z,5.30
2024-05-09T23:15:39.290Z,5.30
2024-05-09T23:18:10.091Z,5.90
2024-05-09T23:20:40.583Z,4.70
2024-05-09T23:23:12.183Z,5.30
2024-05-09T23:25:42.807Z,4.60
2024-05-09T23:28:13.132Z,5.00
2024-05-09T23:30:43.568Z,5.00
2024-05-09T23:33:14.768Z,5.20
2024-05-09T23:35:45.304Z,4.70
2024-05-09T23:38:15.822Z,4.50
2024-05-09T23:40:46.515Z,4.90
2024-05-09T23:43:17.526Z,5.00
2024-05-09T23:45:47.779Z,4.70
2024-05-09T23:48:18.346Z,4.90
2024-05-09T23:50:48.548Z,4.60
2024-05-09T23:53:18.581Z,4.60
2024-05-09T23:55:48.900Z,4.90
2024-05-09T23:58:19.610Z,4.70
